Time;durP1;ratioP1;P1;durP2;ratioP2;P2;SDS_P1;SDS_P2;PMS_P1;PMS_P2;Temp;Humidity;BMP_temperature;BMP_pressure;BME280_temperature;BME280_humidity;BME280_pressure;Samples;Min_cycle;Max_cycle;Signal;HPM_P1;HPM_P2
2022/06/28 00:00:18;;;;;;;8.43;7.50;;;;;;;22.68;62.33;99794.27;1737241;82;21041;-42
2022/06/28 00:02:46;;;;;;;7.75;7.05;;;;;;;22.68;62.22;99795.05;1737356;82;21065;-42
2022/06/28 00:05:13;;;;;;;8.28;7.42;;;;;;;22.68;62.18;99792.28;1737392;82;21245;-42
2022/06/28 00:07:41;;;;;;;8.70;7.80;;;;;;;22.67;62.19;99788.56;1737121;82;21012;-42
2022/06/28 00:10:10;;;;;;;8.68;7.78;;;;;;;22.65;62.37;99787.63;1737085;82;20977;-42
2022/06/28 00:12:37;;;;;;;8.30;7.50;;;;;;;22.64;62.52;99795.75;1737017;82;21010;-42
2022/06/28 00:17:51;;;;;;;11.60;8.00;;;;;;;22.61;61.68;99793.82;1737073;82;21215;-42
2022/06/28 00:20:20;;;;;;;9.50;7.97;;;;;;;22.57;61.50;99795.11;1737118;82;20927;-42
2022/06/28 00:22:47;;;;;;;8.85;7.95;;;;;;;22.54;61.38;99791.23;1737075;82;21014;-42
2022/06/28 00:25:14;;;;;;;8.40;7.53;;;;;;;22.54;61.42;99791.23;1736951;82;21868;-42
2022/06/28 00:27:43;;;;;;;8.68;7.85;;;;;;;22.53;61.40;99792.44;1737250;82;21025;-42
2022/06/28 00:30:13;;;;;;;9.38;8.40;;;;;;;22.53;61.68;99791.05;1736984;82;23159;-42
2022/06/28 00:32:41;;;;;;;;;;;;;;;22.52;61.79;99789.50;1739521;82;21584;-42
2022/06/28 00:35:09;;;;;;;9.15;7.95;;;;;;;22.49;61.78;99787.00;1737055;82;20172;-42
2022/06/28 00:37:36;;;;;;;9.20;8.28;;;;;;;22.39;62.04;99796.30;1737263;82;21053;-42
2022/06/28 00:40:05;;;;;;;8.55;7.75;;;;;;;22.40;62.14;99788.80;1737316;82;21544;-42
2022/06/28 00:42:33;;;;;;;12.25;8.05;;;;;;;22.41;62.28;99787.59;1737686;82;21888;-42
2022/06/28 00:45:01;;;;;;;8.83;7.92;;;;;;;22.43;62.28;99792.08;1742023;82;21617;-42
2022/06/28 00:47:28;;;;;;;9.50;8.05;;;;;;;22.43;62.20;99789.31;1745270;82;21575;-42
2022/06/28 00:49:56;;;;;;;9.30;8.40;;;;;;;22.43;61.83;99793.45;1744993;82;21013;-42
2022/06/28 00:52:23;;;;;;;9.30;8.08;;;;;;;22.42;61.68;99796.81;1745207;82;21088;-42
2022/06/28 00:54:51;;;;;;;8.83;7.92;;;;;;;22.42;61.68;99787.75;1744977;82;21100;-42
2022/06/28 00:59:48;;;;;;;9.98;8.20;;;;;;;22.42;61.96;99789.13;1784180;79;22574;-42
2022/06/28 01:02:15;;;;;;;9.03;8.00;;;;;;;22.33;62.15;99785.58;1754236;81;20929;-42
2022/06/28 01:04:43;;;;;;;10.63;8.23;;;;;;;22.31;62.17;99792.16;1726925;81;21145;-42
2022/06/28 01:07:10;;;;;;;8.70;7.78;;;;;;;22.28;62.32;99786.09;1754255;81;21009;-42
2022/06/28 01:09:37;;;;;;;9.08;7.58;;;;;;;22.26;61.74;99789.11;1755672;81;21532;-42
2022/06/28 01:12:06;;;;;;;8.33;7.53;;;;;;;22.23;61.79;99784.42;1755647;81;20905;-42
2022/06/28 01:14:34;;;;;;;8.75;7.83;;;;;;;22.22;61.87;99789.80;1724866;81;20945;-42
2022/06/28 01:17:06;;;;;;;8.30;7.42;;;;;;;22.19;61.83;99783.73;1754559;81;21138;-42
2022/06/28 01:19:41;;;;;;;8.33;7.53;;;;;;;22.18;61.88;99784.93;1689791;83;21058;-42
2022/06/28 01:22:11;;;;;;;8.83;8.03;;;;;;;22.14;61.68;99774.56;1720465;83;21054;-42
2022/06/28 01:24:38;;;;;;;9.13;8.10;;;;;;;22.14;61.68;99774.56;1722363;83;21496;-42
2022/06/28 01:27:09;;;;;;;10.50;8.40;;;;;;;22.11;61.89;99776.22;1722421;83;21482;-41
2022/06/28 01:29:37;;;;;;;10.72;8.68;;;;;;;22.09;62.01;99781.38;1722049;83;21245;-42
2022/06/28 01:32:22;;;;;;;9.05;8.13;;;;;;;22.07;62.01;99781.04;1722222;83;21007;-42
2022/06/28 01:34:50;;;;;;;10.00;8.38;;;;;;;22.01;62.11;99773.86;1722252;83;21050;-42
2022/06/28 01:37:19;;;;;;;9.98;8.83;;;;;;;21.97;62.30;99770.39;1722139;83;21031;-42
2022/06/28 01:39:47;;;;;;;9.03;8.20;;;;;;;21.95;62.45;99770.63;1722073;83;21114;-42
2022/06/28 01:42:14;;;;;;;9.15;8.25;;;;;;;21.91;62.65;99774.82;1722053;83;21252;-42
2022/06/28 01:44:42;;;;;;;9.80;8.85;;;;;;;21.90;62.65;99773.27;1722016;83;21062;-42
2022/06/28 01:47:12;;;;;;;9.28;8.40;;;;;;;21.91;62.66;99776.80;1693012;83;20975;-42
2022/06/28 01:49:50;;;;;;;8.73;7.83;;;;;;;21.89;62.78;99777.81;1716908;83;21568;-42
2022/06/28 01:52:19;;;;;;;10.53;8.98;;;;;;;21.81;62.91;99774.44;1722076;83;20982;-42
2022/06/28 01:54:46;;;;;;;10.38;9.38;;;;;;;21.79;63.00;99778.20;1717284;83;21220;-42
2022/06/28 01:57:14;;;;;;;11.33;9.25;;;;;;;21.78;63.15;99773.91;1722087;83;20975;-42
2022/06/28 01:59:43;;;;;;;;;;;;;;;21.76;63.05;99776.31;1720543;83;21089;-42
2022/06/28 02:02:15;;;;;;;9.80;8.80;;;;;;;21.74;63.09;99777.33;1717965;83;20193;-42
2022/06/28 02:04:44;;;;;;;9.80;8.75;;;;;;;21.63;63.43;99769.88;1717350;83;21639;-42
2022/06/28 02:07:12;;;;;;;10.95;8.80;;;;;;;21.63;63.49;99773.42;1719683;83;21129;-42
2022/06/28 02:09:41;;;;;;;12.37;9.18;;;;;;;21.64;63.59;99774.17;1719582;83;20967;-42
2022/06/28 02:12:09;;;;;;;10.10;8.30;;;;;;;21.67;63.63;99776.09;1719469;83;21557;-43
2022/06/28 02:14:37;;;;;;;15.35;9.23;;;;;;;21.68;63.67;99772.92;1719392;83;20975;-42
2022/06/28 02:17:05;;;;;;;10.72;9.63;;;;;;;21.70;63.63;99772.48;1719427;83;21015;-42
2022/06/28 02:19:33;;;;;;;9.88;8.88;;;;;;;21.71;63.44;99767.14;1719689;83;21042;-43
2022/06/28 02:22:01;;;;;;;10.10;9.10;;;;;;;21.72;63.42;99768.70;1719281;83;20967;-42
2022/06/28 02:24:31;;;;;;;10.80;9.28;;;;;;;21.74;63.32;99770.42;1719351;83;21268;-42
2022/06/28 02:26:59;;;;;;;9.50;8.15;;;;;;;21.77;63.44;99773.73;1719547;83;21115;-42
2022/06/28 02:29:26;;;;;;;10.25;9.05;;;;;;;21.79;63.40;99769.93;1719107;83;21612;-42
2022/06/28 02:31:54;;;;;;;10.00;8.73;;;;;;;21.82;63.46;99776.00;1719310;83;21257;-43
2022/06/28 02:42:37;;;;;;;9.50;8.60;;;;;;;21.82;63.37;99767.72;1719279;83;21553;-42
2022/06/28 02:45:07;;;;;;;10.38;8.65;;;;;;;21.85;63.47;99772.97;1716713;83;21143;-42
2022/06/28 02:47:34;;;;;;;10.90;8.58;;;;;;;21.89;63.46;99764.80;1662717;86;20976;-42
2022/06/28 02:50:01;;;;;;;10.68;9.20;;;;;;;21.94;63.32;99764.33;1658964;86;21000;-42
2022/06/28 02:52:29;;;;;;;9.90;8.95;;;;;;;21.98;63.24;99765.02;1681917;85;20970;-42
2022/06/28 02:54:56;;;;;;;10.90;9.85;;;;;;;22.00;63.18;99769.53;1681904;85;21048;-42
2022/06/28 02:57:24;;;;;;;12.33;9.33;;;;;;;22.05;63.17;99769.62;1681643;85;23147;-43
2022/06/28 02:59:51;;;;;;;10.08;9.08;;;;;;;22.06;62.98;99771.97;1674005;85;21022;-43
2022/06/28 03:02:18;;;;;;;11.12;10.00;;;;;;;22.08;62.98;99769.55;1671773;85;21837;-43
2022/06/28 03:04:45;;;;;;;12.53;9.45;;;;;;;22.12;62.93;99768.11;1671764;85;21001;-43
2022/06/28 03:07:13;;;;;;;10.98;9.93;;;;;;;22.16;62.86;99768.03;1671832;85;21018;-43
2022/06/28 03:09:40;;;;;;;10.40;9.40;;;;;;;22.19;62.92;99767.16;1671839;85;21206;-43
2022/06/28 03:12:09;;;;;;;10.58;9.53;;;;;;;22.21;62.90;99764.77;1671972;85;21508;-43
2022/06/28 03:14:36;;;;;;;13.15;10.20;;;;;;;22.01;62.85;99731.06;1671773;85;20994;-43
2022/06/28 03:17:04;;;;;;;13.70;10.30;;;;;;;22.29;62.82;99763.39;1671797;85;21592;-43
2022/06/28 03:19:32;;;;;;;12.35;10.82;;;;;;;22.33;62.82;99759.94;1671821;85;21612;-43
2022/06/28 03:21:59;;;;;;;14.25;11.05;;;;;;;22.36;62.73;99773.69;1671672;85;21143;-43
2022/06/28 03:24:26;;;;;;;12.00;10.80;;;;;;;22.39;62.81;99769.28;1671602;85;21013;-43
2022/06/28 03:26:54;;;;;;;11.78;10.58;;;;;;;22.44;62.91;99771.53;1671526;85;21026;-43
2022/06/28 03:29:22;;;;;;;13.32;10.15;;;;;;;22.47;62.93;99776.19;1671637;85;20955;-43
2022/06/28 03:31:49;;;;;;;11.97;10.72;;;;;;;22.52;62.97;99771.53;1671517;85;21054;-43
2022/06/28 03:34:17;;;;;;;11.40;10.18;;;;;;;22.56;63.03;99769.46;1671655;85;21142;-43
2022/06/28 03:36:44;;;;;;;10.80;9.68;;;;;;;22.62;63.04;99770.52;1671525;85;21536;-43
2022/06/28 03:39:29;;;;;;;11.50;10.38;;;;;;;22.70;63.01;99774.71;1671107;85;21050;-43
2022/06/28 03:41:56;;;;;;;11.78;10.15;;;;;;;22.77;62.86;99766.84;1671629;85;21535;-43
2022/06/28 03:44:24;;;;;;;12.13;9.90;;;;;;;22.84;62.83;99774.36;1671683;85;21089;-43
2022/06/28 03:46:51;;;;;;;11.28;9.70;;;;;;;22.92;62.85;99773.58;1671772;85;21124;-43
2022/06/28 03:49:26;;;;;;;11.55;10.35;;;;;;;23.00;62.83;99767.25;1668955;85;21544;-43
2022/06/28 03:51:58;;;;;;;12.90;10.63;;;;;;;23.07;62.98;99760.16;1671542;85;21690;-43
2022/06/28 03:54:27;;;;;;;12.58;10.18;;;;;;;23.11;62.85;99762.23;1671918;85;21584;-43
2022/06/28 03:56:56;;;;;;;11.55;9.33;;;;;;;23.17;62.96;99761.28;1668212;85;21089;-43
2022/06/28 03:59:23;;;;;;;11.97;9.65;;;;;;;23.24;63.02;99760.30;1674904;85;21139;-43
2022/06/28 04:01:50;;;;;;;10.85;9.68;;;;;;;23.32;63.06;99752.78;1679220;85;21021;-43
2022/06/28 04:04:18;;;;;;;10.35;9.30;;;;;;;23.44;62.90;99758.78;1679369;85;21109;-43
2022/06/28 04:06:46;;;;;;;14.40;9.63;;;;;;;23.54;62.73;99753.59;1679500;85;21492;-43
2022/06/28 04:09:17;;;;;;;11.00;9.63;;;;;;;23.64;62.64;99760.23;1679443;85;21081;-43
2022/06/28 04:11:46;;;;;;;11.22;8.93;;;;;;;23.73;62.79;99760.36;1679261;85;23148;-43
2022/06/28 04:14:13;;;;;;;9.58;8.18;;;;;;;23.83;62.65;99759.89;1679199;85;20993;-43
2022/06/28 04:16:42;;;;;;;7.83;6.53;;;;;;;23.93;62.55;99762.18;1679255;85;21108;-43
2022/06/28 04:19:11;;;;;;;9.18;6.20;;;;;;;24.04;61.79;99765.42;1679071;85;21040;-43
2022/06/28 04:21:40;;;;;;;8.55;6.33;;;;;;;24.15;60.61;99770.05;1677312;85;21040;-43
2022/06/28 04:24:08;;;;;;;8.87;6.33;;;;;;;24.29;59.98;99766.88;1677846;85;23254;-43
2022/06/28 04:26:37;;;;;;;8.53;6.10;;;;;;;24.41;59.73;99763.92;1679330;85;21001;-43
2022/06/28 04:29:06;;;;;;;6.75;6.12;;;;;;;24.51;59.68;99765.59;1679186;85;21041;-43
2022/06/28 04:31:33;;;;;;;9.48;5.92;;;;;;;24.62;59.37;99768.20;1679170;85;21037;-43
2022/06/28 04:34:00;;;;;;;8.08;6.37;;;;;;;24.74;59.22;99771.42;1679393;85;21547;-43
2022/06/28 04:36:30;;;;;;;7.90;6.90;;;;;;;24.83;58.77;99768.73;1678908;85;21243;-43
2022/06/28 04:38:58;;;;;;;6.75;6.10;;;;;;;24.90;58.20;99774.06;1679379;85;21034;-43
2022/06/28 04:41:26;;;;;;;;;;;;;;;24.96;58.14;99773.67;1681131;85;21014;-43
2022/06/28 04:43:58;;;;;;;7.62;6.12;;;;;;;25.02;57.91;99769.12;1680028;83;20281;-43
2022/06/28 04:46:30;;;;;;;7.53;5.85;;;;;;;25.00;57.77;99770.16;1679326;85;21022;-43
2022/06/28 04:48:59;;;;;;;8.27;6.33;;;;;;;25.11;57.47;99769.20;1679687;85;21148;-43
2022/06/28 04:51:28;;;;;;;8.40;6.05;;;;;;;25.19;57.50;99767.73;1678046;85;21835;-43
2022/06/28 04:53:55;;;;;;;6.30;5.70;;;;;;;25.29;56.63;99767.98;1679332;85;20950;-43
2022/06/28 04:56:24;;;;;;;7.40;6.40;;;;;;;25.39;56.68;99764.05;1679218;85;21041;-43
2022/06/28 04:58:52;;;;;;;7.03;5.97;;;;;;;25.49;56.98;99767.07;1679255;85;21116;-43
2022/06/28 05:01:19;;;;;;;6.60;6.00;;;;;;;25.58;57.02;99765.61;1679068;85;21155;-43
2022/06/28 05:03:47;;;;;;;8.63;6.15;;;;;;;25.63;56.89;99756.70;1679342;85;21541;-43
2022/06/28 05:06:29;;;;;;;6.60;5.92;;;;;;;25.71;56.32;99756.59;1674946;85;21595;-43
2022/06/28 05:08:56;;;;;;;6.92;5.78;;;;;;;25.79;55.71;99753.73;1679246;85;20974;-43
2022/06/28 05:11:24;;;;;;;7.40;6.03;;;;;;;25.90;54.99;99759.04;1679208;85;21061;-43
2022/06/28 05:14:08;;;;;;;6.85;5.65;;;;;;;26.01;53.95;99753.70;1677766;85;21029;-43
2022/06/28 05:16:37;;;;;;;6.80;5.87;;;;;;;26.12;53.63;99749.91;1679360;85;21576;-43
2022/06/28 05:19:04;;;;;;;8.33;6.08;;;;;;;26.23;53.13;99751.70;1679199;85;21029;-43
2022/06/28 05:21:36;;;;;;;7.80;6.37;;;;;;;26.33;52.82;99749.13;1679427;85;21543;-43
2022/06/28 05:24:04;;;;;;;9.18;5.97;;;;;;;26.43;52.67;99740.20;1679634;85;21550;-43
2022/06/28 05:26:42;;;;;;;12.80;5.85;;;;;;;26.53;52.48;99744.56;1679429;85;21109;-43
2022/06/28 05:29:14;;;;;;;6.50;5.85;;;;;;;26.63;51.98;99744.11;1678065;85;20997;-43
2022/06/28 05:31:41;;;;;;;7.85;5.92;;;;;;;26.73;51.67;99742.13;1679182;85;21001;-43
2022/06/28 05:34:08;;;;;;;6.87;5.70;;;;;;;26.83;51.10;99743.70;1679215;85;21045;-43
2022/06/28 05:36:41;;;;;;;6.55;5.90;;;;;;;26.92;51.00;99735.39;1679175;85;21061;-43
2022/06/28 05:39:05;;;;;;;6.63;5.93;;;;;;;27.02;50.96;99746.69;1678504;85;21242;-43
2022/06/28 05:41:32;;;;;;;7.58;5.72;;;;;;;27.11;50.82;99743.17;1679157;85;21045;-43
2022/06/28 05:44:01;;;;;;;7.75;5.62;;;;;;;27.19;50.40;99745.18;1674669;85;21089;-43
2022/06/28 05:46:28;;;;;;;9.25;5.83;;;;;;;27.29;50.41;99747.96;1679151;85;21096;-43
2022/06/28 05:48:55;;;;;;;6.08;5.47;;;;;;;27.39;49.69;99749.52;1679532;85;21575;-43
2022/06/28 05:51:23;;;;;;;7.60;5.28;;;;;;;27.49;49.35;99746.91;1679378;85;21129;-43
2022/06/28 05:53:50;;;;;;;8.63;5.50;;;;;;;27.56;49.37;99749.37;1685489;84;20970;-43
2022/06/28 05:56:17;;;;;;;11.85;5.60;;;;;;;27.64;49.15;99749.22;1686644;85;21621;-43
2022/06/28 05:58:45;;;;;;;7.17;5.55;;;;;;;27.74;48.97;99747.94;1751788;82;21544;-43
2022/06/28 06:01:13;;;;;;;8.98;5.65;;;;;;;27.83;48.92;99743.77;1756300;81;21095;-43
2022/06/28 06:03:40;;;;;;;7.42;5.58;;;;;;;27.94;48.48;99737.69;1757152;81;22040;-43
2022/06/28 06:06:07;;;;;;;5.87;5.12;;;;;;;28.03;48.38;99740.47;1757067;81;21021;-43
2022/06/28 06:08:35;;;;;;;6.75;5.72;;;;;;;28.12;48.87;99737.69;1756956;81;21516;-43
2022/06/28 06:11:07;;;;;;;6.75;5.28;;;;;;;28.22;48.80;99740.59;1757366;81;20993;-43
2022/06/28 06:13:35;;;;;;;5.33;4.83;;;;;;;28.31;48.18;99734.20;1757190;81;21088;-43
2022/06/28 06:16:04;;;;;;;7.15;4.70;;;;;;;28.40;47.45;99736.33;1757411;81;21287;-43
2022/06/28 06:18:31;;;;;;;8.85;5.28;;;;;;;28.49;46.97;99735.50;1757030;81;20973;-43
2022/06/28 06:20:58;;;;;;;5.20;4.65;;;;;;;28.58;47.02;99736.07;1756880;81;21532;-43
2022/06/28 06:23:26;;;;;;;6.03;4.85;;;;;;;28.64;45.98;99727.21;1757036;81;21476;-43
2022/06/28 06:26:05;;;;;;;5.72;4.30;;;;;;;28.71;46.09;99723.46;1756821;81;21532;-43
2022/06/28 06:28:35;;;;;;;5.72;4.90;;;;;;;28.76;45.51;99733.97;1756708;81;23144;-43
2022/06/28 06:31:03;;;;;;;7.78;5.40;;;;;;;28.82;45.94;99734.87;1756795;81;20964;-43
2022/06/28 06:33:42;;;;;;;7.22;4.97;;;;;;;28.88;46.01;99733.60;1711224;83;21610;-43
2022/06/28 06:36:11;;;;;;;5.55;4.78;;;;;;;28.93;46.21;99731.55;1756033;81;20985;-43
2022/06/28 06:38:39;;;;;;;7.37;4.00;;;;;;;28.99;45.71;99727.48;1756867;81;21072;-43
2022/06/28 06:41:07;;;;;;;9.00;4.53;;;;;;;29.05;44.51;99722.15;1756831;81;21240;-43
2022/06/28 06:43:34;;;;;;;4.45;4.00;;;;;;;29.13;43.78;99726.76;1756653;81;20957;-43
2022/06/28 06:46:09;;;;;;;4.30;3.90;;;;;;;29.20;43.75;99729.17;1756848;81;21507;-43
2022/06/28 06:48:38;;;;;;;5.97;4.28;;;;;;;29.27;43.09;99723.23;1756781;81;21032;-43
2022/06/28 06:51:05;;;;;;;4.70;3.87;;;;;;;29.34;42.87;99722.25;1756913;81;21061;-43
2022/06/28 06:53:33;;;;;;;4.55;3.87;;;;;;;29.43;43.01;99715.84;1756943;81;21172;-43
2022/06/28 06:56:00;;;;;;;5.55;3.92;;;;;;;29.52;42.99;99717.14;1756810;81;20969;-43
2022/06/28 06:58:27;;;;;;;8.80;4.50;;;;;;;29.57;42.12;99713.68;1756961;81;21485;-43
2022/06/28 07:00:55;;;;;;;8.73;4.78;;;;;;;29.66;41.55;99715.61;1748449;81;21480;-43
2022/06/28 07:03:23;;;;;;;5.50;4.53;;;;;;;29.72;41.97;99717.25;1743678;82;21008;-43
2022/06/28 07:05:50;;;;;;;8.15;4.97;;;;;;;29.81;41.48;99726.16;1743821;81;21244;-43
2022/06/28 07:08:17;;;;;;;11.55;4.40;;;;;;;29.89;41.47;99727.34;1743778;81;21073;-43
2022/06/28 07:10:52;;;;;;;7.83;4.53;;;;;;;29.96;41.23;99731.78;1743563;81;20934;-43
2022/06/28 07:13:19;;;;;;;4.15;3.42;;;;;;;30.03;40.72;99728.58;1743423;82;21543;-43
2022/06/28 07:15:48;;;;;;;5.67;3.90;;;;;;;30.13;40.38;99727.22;1743471;82;21085;-43
2022/06/28 07:18:18;;;;;;;5.80;4.40;;;;;;;30.23;40.03;99728.66;1743394;81;21255;-43
2022/06/28 07:20:45;;;;;;;4.75;4.03;;;;;;;30.33;40.38;99732.11;1743399;82;21038;-43
2022/06/28 07:23:12;;;;;;;4.25;3.85;;;;;;;30.44;40.21;99732.28;1743712;82;21528;-43
2022/06/28 07:25:39;;;;;;;4.10;3.70;;;;;;;30.56;39.69;99733.38;1743465;81;20911;-43
2022/06/28 07:28:10;;;;;;;3.92;3.50;;;;;;;30.68;39.63;99734.94;1743680;81;21038;-43
2022/06/28 07:30:36;;;;;;;5.72;3.60;;;;;;;30.78;38.97;99741.33;1743686;81;21540;-43
2022/06/28 07:33:04;;;;;;;7.50;3.90;;;;;;;30.83;39.24;99744.83;1743466;82;20918;-43
2022/06/28 07:35:32;;;;;;;7.87;4.35;;;;;;;30.89;38.75;99729.48;1743626;82;21496;-43
2022/06/28 07:38:00;;;;;;;4.40;4.00;;;;;;;30.97;38.58;99736.22;1743634;82;21485;-43
2022/06/28 07:40:29;;;;;;;5.50;4.12;;;;;;;31.01;38.52;99745.18;1722707;81;21034;-43
2022/06/28 07:42:58;;;;;;;6.58;4.53;;;;;;;31.04;38.20;99742.81;1722948;81;21152;-43
2022/06/28 07:45:40;;;;;;;5.67;4.05;;;;;;;31.03;38.38;99750.45;1731150;81;20961;-43
2022/06/28 07:48:12;;;;;;;5.97;4.50;;;;;;;31.01;38.35;99744.58;1743362;81;21008;-43
2022/06/28 07:53:13;;;;;;;5.17;4.05;;;;;;;31.13;37.97;99735.67;1724618;81;21124;-43
2022/06/28 07:55:44;;;;;;;6.00;4.42;;;;;;;31.23;37.71;99745.47;1742004;81;21202;-43
2022/06/28 07:58:14;;;;;;;5.40;4.55;;;;;;;31.24;37.45;99736.44;1742579;81;20938;-43
2022/06/28 08:00:41;;;;;;;7.53;4.60;;;;;;;31.26;37.96;99744.50;1748677;81;20968;-44
2022/06/28 08:03:13;;;;;;;5.50;4.70;;;;;;;31.29;38.80;99735.11;1756707;81;21076;-43
2022/06/28 08:05:41;;;;;;;6.00;4.42;;;;;;;31.36;38.24;99738.12;1757063;81;21542;-43
2022/06/28 08:08:09;;;;;;;9.58;4.70;;;;;;;31.40;37.91;99740.84;1756752;81;21145;-43
2022/06/28 08:10:37;;;;;;;5.40;4.90;;;;;;;31.39;37.49;99739.30;1756774;81;21610;-43
2022/06/28 08:13:06;;;;;;;7.33;4.55;;;;;;;31.38;37.23;99741.95;1756848;81;20969;-43
2022/06/28 08:15:33;;;;;;;6.17;4.70;;;;;;;31.32;37.62;99738.31;1756890;81;21069;-43
2022/06/28 08:18:01;;;;;;;5.15;4.65;;;;;;;31.25;38.35;99736.58;1756920;81;21029;-43
2022/06/28 08:20:31;;;;;;;6.28;4.40;;;;;;;31.17;38.71;99734.85;1756652;81;21233;-43
2022/06/28 08:22:58;;;;;;;5.60;4.60;;;;;;;31.16;38.76;99731.12;1756717;81;21039;-43
2022/06/28 08:25:25;;;;;;;5.65;4.55;;;;;;;31.22;39.25;99731.34;1756721;81;20973;-43
2022/06/28 08:27:53;;;;;;;5.42;4.05;;;;;;;31.36;39.08;99728.31;1756806;81;21463;-43
2022/06/28 08:30:20;;;;;;;4.72;4.17;;;;;;;31.45;38.54;99724.72;1756608;81;21072;-43
2022/06/28 08:32:48;;;;;;;5.67;4.10;;;;;;;31.52;37.95;99725.55;1757025;81;21283;-43
2022/06/28 08:35:16;;;;;;;4.58;4.10;;;;;;;31.58;37.91;99727.16;1756937;81;21519;-43
2022/06/28 08:37:44;;;;;;;4.92;4.40;;;;;;;31.72;37.38;99724.10;1756941;81;20982;-43
2022/06/28 08:40:11;;;;;;;9.13;3.90;;;;;;;31.91;37.20;99723.89;1756517;81;21676;-43
2022/06/28 08:42:42;;;;;;;5.72;3.90;;;;;;;32.11;35.97;99717.45;1756739;81;21041;-43
2022/06/28 08:45:10;;;;;;;3.72;3.20;;;;;;;32.27;36.00;99717.59;1740361;81;21877;-43
2022/06/28 08:47:38;;;;;;;4.05;3.58;;;;;;;32.48;36.28;99722.45;1756770;81;21021;-43
2022/06/28 08:50:10;;;;;;;4.12;3.72;;;;;;;32.63;35.94;99719.48;1757450;81;21508;-43
2022/06/28 08:52:37;;;;;;;4.17;3.62;;;;;;;32.71;34.94;99722.73;1756897;81;21044;-43
2022/06/28 08:55:06;;;;;;;3.70;3.37;;;;;;;32.70;34.22;99719.02;1756835;81;21017;-43
2022/06/28 08:57:39;;;;;;;3.60;3.30;;;;;;;32.65;34.27;99721.16;1764025;80;21110;-43
2022/06/28 09:00:10;;;;;;;3.98;3.17;;;;;;;32.68;34.02;99713.89;1736835;80;21789;-43
2022/06/28 09:02:37;;;;;;;3.70;3.40;;;;;;;32.76;34.12;99710.77;1785551;80;21518;-43
2022/06/28 09:05:06;;;;;;;4.87;3.60;;;;;;;32.90;33.91;99718.87;1785352;80;20957;-43
2022/06/28 09:07:33;;;;;;;3.85;3.45;;;;;;;33.03;33.67;99718.39;1785372;80;21075;-43
2022/06/28 09:10:00;;;;;;;5.20;3.33;;;;;;;33.17;33.49;99711.83;1785363;80;21128;-43
2022/06/28 09:12:28;;;;;;;6.22;3.95;;;;;;;33.32;33.51;99704.59;1780958;80;20956;-43
2022/06/28 09:14:57;;;;;;;4.75;3.75;;;;;;;33.48;32.76;99710.90;1785321;80;20999;-43
2022/06/28 09:17:29;;;;;;;4.12;3.70;;;;;;;33.63;32.77;99707.22;1785527;80;20979;-43
2022/06/28 09:20:06;;;;;;;8.13;4.17;;;;;;;33.80;33.28;99708.02;1785396;80;21020;-43
2022/06/28 09:22:44;;;;;;;4.58;3.40;;;;;;;33.98;33.35;99704.72;1786023;80;21044;-43
2022/06/28 09:25:26;;;;;;;4.87;3.42;;;;;;;34.13;33.21;99695.23;1785506;80;21562;-43
2022/06/28 09:27:59;;;;;;;4.50;3.37;;;;;;;34.30;32.62;99693.18;1785682;80;21019;-43
2022/06/28 09:30:28;;;;;;;3.92;3.40;;;;;;;34.45;31.46;99696.48;1785474;80;20937;-43
2022/06/28 09:32:57;;;;;;;4.42;3.50;;;;;;;34.59;31.49;99691.83;1785950;80;21024;-43
2022/06/28 09:35:24;;;;;;;4.70;3.60;;;;;;;34.65;31.19;99687.72;1785807;80;21475;-43
2022/06/28 09:37:52;;;;;;;6.50;4.10;;;;;;;34.63;31.74;99690.91;1786308;80;21019;-43
2022/06/28 09:40:25;;;;;;;5.85;3.80;;;;;;;34.60;31.60;99685.69;1785555;80;21029;-43
2022/06/28 09:43:14;;;;;;;4.45;3.70;;;;;;;34.64;32.18;99683.37;1784173;80;21036;-43
2022/06/28 09:45:43;;;;;;;5.20;3.52;;;;;;;34.68;31.50;99674.03;1707809;84;21061;-43
2022/06/28 09:48:18;;;;;;;5.90;3.77;;;;;;;34.74;31.98;99671.97;1765187;80;21095;-43
2022/06/28 09:50:45;;;;;;;3.95;3.55;;;;;;;34.77;31.17;99666.70;1785400;80;21007;-43
2022/06/28 09:53:20;;;;;;;4.35;3.95;;;;;;;34.75;31.80;99667.88;1785588;80;21496;-43
2022/06/28 09:55:43;;;;;;;6.00;3.90;;;;;;;34.80;31.20;99660.69;1785133;80;21007;-43
2022/06/28 09:58:11;;;;;;;5.05;3.70;;;;;;;34.84;30.70;99659.13;1757242;80;21079;-43
2022/06/28 10:00:41;;;;;;;4.35;3.95;;;;;;;34.91;30.77;99662.02;1785500;80;21916;-44
2022/06/28 10:03:08;;;;;;;4.72;3.50;;;;;;;34.97;31.11;99669.04;1785528;80;20968;-43
2022/06/28 10:05:37;;;;;;;6.57;3.60;;;;;;;34.89;30.99;99665.37;1785791;80;20984;-43
2022/06/28 10:08:06;;;;;;;4.37;3.70;;;;;;;34.84;31.01;99660.53;1785565;80;20978;-43
2022/06/28 10:10:37;;;;;;;4.00;3.60;;;;;;;34.82;31.16;99654.64;1785739;80;20997;-43
2022/06/28 10:16:00;;;;;;;4.75;3.72;;;;;;;34.58;30.63;99651.64;1785520;80;20936;-43
2022/06/28 10:18:27;;;;;;;5.97;4.05;;;;;;;34.59;32.03;99640.50;1785467;80;20956;-43
2022/06/28 10:20:55;;;;;;;4.70;3.80;;;;;;;34.72;30.89;99656.22;1785659;80;21452;-43
2022/06/28 10:23:26;;;;;;;4.08;3.77;;;;;;;34.85;30.42;99645.17;1785682;80;21424;-43
2022/06/28 10:26:09;;;;;;;7.12;4.08;;;;;;;34.97;30.14;99649.31;1785834;80;21554;-43
2022/06/28 10:28:46;;;;;;;4.05;3.65;;;;;;;35.10;30.95;99648.11;1785872;80;21460;-43
2022/06/28 10:31:29;;;;;;;5.42;3.60;;;;;;;35.23;30.34;99642.67;1785551;80;20941;-43
2022/06/28 10:33:58;;;;;;;5.58;3.70;;;;;;;35.42;30.14;99648.43;1785602;80;21028;-43
2022/06/28 10:36:27;;;;;;;4.28;3.67;;;;;;;35.59;29.69;99648.41;1785705;80;21063;-43
2022/06/28 10:39:11;;;;;;;6.03;4.28;;;;;;;35.71;29.69;99642.84;1785845;80;21218;-43
2022/06/28 10:41:45;;;;;;;4.97;3.10;;;;;;;35.89;29.04;99641.39;1785431;80;20964;-43
2022/06/28 10:44:18;;;;;;;4.10;3.72;;;;;;;36.11;28.76;99639.02;1785367;80;20976;-44
2022/06/28 10:46:57;;;;;;;3.90;3.60;;;;;;;36.35;28.16;99629.80;1785553;80;21474;-44
2022/06/28 10:49:23;;;;;;;5.30;3.70;;;;;;;36.56;28.42;99634.41;1784519;80;21063;-43
2022/06/28 10:52:10;;;;;;;6.85;3.67;;;;;;;36.78;27.96;99628.40;1785550;80;22042;-43
2022/06/28 10:54:38;;;;;;;4.25;3.72;;;;;;;36.95;27.42;99628.27;1752722;80;21060;-43
2022/06/28 10:57:29;;;;;;;5.10;3.85;;;;;;;37.17;26.99;99623.64;1780802;80;20968;-43
2022/06/28 10:59:59;;;;;;;5.28;3.50;;;;;;;37.37;27.00;99616.77;1783206;80;21507;-43
2022/06/28 11:02:40;;;;;;;4.22;3.40;;;;;;;37.49;27.02;99617.34;1785515;80;21000;-43
2022/06/28 11:05:09;;;;;;;4.37;3.70;;;;;;;37.68;26.75;99608.81;1772230;80;21182;-43
2022/06/28 11:07:36;;;;;;;4.92;3.77;;;;;;;37.91;26.16;99611.35;1785717;80;21028;-43
2022/06/28 11:10:12;;;;;;;5.85;3.90;;;;;;;37.95;25.78;99607.57;1785637;80;21007;-43
2022/06/28 11:12:41;;;;;;;5.05;3.80;;;;;;;37.83;26.22;99603.41;1785530;80;21079;-44
2022/06/28 11:15:12;;;;;;;4.50;4.10;;;;;;;37.69;26.15;99608.93;1785584;80;21502;-43
2022/06/28 11:17:44;;;;;;;4.50;3.90;;;;;;;37.45;26.47;99608.41;1785549;80;21202;-44
2022/06/28 11:20:13;;;;;;;5.22;4.00;;;;;;;37.18;27.16;99607.53;1785521;80;21567;-43
2022/06/28 11:22:43;;;;;;;;;;;;;;;36.97;27.32;99610.79;1788113;80;20988;-43
2022/06/28 11:25:16;;;;;;;4.30;3.90;;;;;;;36.77;27.58;99602.84;1785441;80;20478;-43
2022/06/28 11:27:53;;;;;;;5.35;4.05;;;;;;;36.78;27.56;99605.15;1785737;80;21565;-44
2022/06/28 11:30:23;;;;;;;4.12;3.80;;;;;;;36.96;27.40;99599.36;1785702;80;21780;-43
2022/06/28 11:32:50;;;;;;;4.92;3.80;;;;;;;37.20;26.61;99600.70;1785380;80;21534;-44
2022/06/28 11:35:27;;;;;;;4.25;3.85;;;;;;;37.50;26.25;99601.12;1785306;80;21483;-44
2022/06/28 11:37:57;;;;;;;4.03;3.65;;;;;;;37.85;26.00;99600.80;1785415;80;21617;-44
2022/06/28 11:40:28;;;;;;;4.00;3.60;;;;;;;38.26;25.67;99599.64;1785569;80;20992;-44
2022/06/28 11:43:11;;;;;;;5.62;3.65;;;;;;;38.71;25.13;99593.08;1785468;80;21770;-44
2022/06/28 11:45:41;;;;;;;4.00;3.60;;;;;;;39.08;24.74;99595.60;1785077;80;20952;-43
2022/06/28 11:48:31;;;;;;;4.03;3.65;;;;;;;39.22;24.41;99599.79;1756799;80;21466;-44
2022/06/28 11:50:59;;;;;;;4.30;3.85;;;;;;;39.24;24.63;99593.69;1785632;80;21580;-44
2022/06/28 11:53:27;;;;;;;4.10;3.47;;;;;;;39.38;24.45;99595.83;1785923;80;21028;-44
2022/06/28 11:55:58;;;;;;;4.25;3.85;;;;;;;39.43;24.39;99594.93;1785702;80;21876;-44
2022/06/28 11:58:31;;;;;;;5.95;4.10;;;;;;;39.32;23.85;99589.52;1785386;80;21000;-44
2022/06/28 12:01:14;;;;;;;5.75;4.03;;;;;;;39.05;23.95;99595.30;1785661;80;20992;-43